Time;durP1;ratioP1;P1;durP2;ratioP2;P2;SDS_P1;SDS_P2;PMS_P1;PMS_P2;Temp;Humidity;BMP_temperature;BMP_pressure;BME280_temperature;BME280_humidity;BME280_pressure;Samples;Min_cycle;Max_cycle;Signal;HPM_P1;HPM_P2
2021/09/07 00:01:13;;;;;;;;;;;17.20;77.40;;;;;;5029823;28;19920;-55
2021/09/07 00:04:17;;;;;;;;;;;17.10;77.80;;;;;;5029939;28;19916;-53
2021/09/07 00:07:24;;;;;;;;;;;17.10;78.50;;;;;;5029627;28;19924;-52
2021/09/07 00:10:29;;;;;;;;;;;16.60;79.10;;;;;;5030007;28;19916;-50
2021/09/07 00:13:33;;;;;;;;;;;16.60;79.50;;;;;;5029980;28;19916;-53
2021/09/07 00:16:38;;;;;;;;;;;16.60;79.90;;;;;;5029866;28;19916;-50
2021/09/07 00:19:43;;;;;;;;;;;16.50;79.80;;;;;;5029917;28;19920;-49
2021/09/07 00:22:47;;;;;;;;;;;16.50;80.30;;;;;;5029615;28;19932;-52
2021/09/07 00:25:51;;;;;;;;;;;16.40;81.00;;;;;;5030184;28;19916;-52
2021/09/07 00:28:54;;;;;;;;;;;16.40;81.30;;;;;;5029584;28;20498;-55
2021/09/07 00:31:59;;;;;;;;;;;16.50;82.00;;;;;;5029845;28;19920;-50
2021/09/07 00:35:07;;;;;;;;;;;16.60;83.00;;;;;;5033759;28;20386;-50
2021/09/07 00:38:12;;;;;;;;;;;16.50;82.60;;;;;;5033145;28;19913;-52
2021/09/07 00:41:16;;;;;;;;;;;16.50;83.00;;;;;;5033379;28;20398;-50
2021/09/07 00:44:23;;;;;;;;;;;16.50;83.70;;;;;;5033313;28;20283;-49
2021/09/07 00:47:27;;;;;;;;;;;16.30;84.20;;;;;;5032999;28;20386;-50
2021/09/07 00:50:31;;;;;;;;;;;16.30;86.80;;;;;;5033177;28;19916;-50
2021/09/07 00:53:36;;;;;;;;;;;16.30;85.10;;;;;;5032994;28;19923;-51
2021/09/07 00:56:41;;;;;;;;;;;16.20;85.70;;;;;;5032902;28;19932;-49
2021/09/07 00:59:45;;;;;;;;;;;16.20;86.30;;;;;;5032168;28;19920;-51
2021/09/07 01:02:49;;;;;;;;;;;16.20;87.70;;;;;;5032516;28;20014;-50
2021/09/07 01:05:54;;;;;;;;;;;16.20;87.70;;;;;;5032430;28;19932;-50
2021/09/07 01:08:59;;;;;;;;;;;16.10;88.40;;;;;;5032000;28;19927;-52
2021/09/07 01:12:03;;;;;;;;;;;16.20;89.60;;;;;;5031968;28;19916;-51
2021/09/07 01:15:08;;;;;;;;;;;16.10;89.70;;;;;;5032242;28;19916;-52
2021/09/07 01:18:12;;;;;;;;;;;16.10;90.00;;;;;;5032061;28;19920;-50
2021/09/07 01:21:17;;;;;;;;;;;16.10;90.10;;;;;;5032070;28;20194;-50
2021/09/07 01:24:22;;;;;;;;;;;16.20;89.90;;;;;;5031943;28;19916;-50
2021/09/07 01:27:26;;;;;;;;;;;16.10;89.60;;;;;;5031849;28;19924;-50
2021/09/07 01:30:30;;;;;;;;;;;16.10;89.60;;;;;;5031752;28;19924;-49
2021/09/07 01:33:37;;;;;;;;;;;16.00;90.10;;;;;;5031955;28;19917;-50
2021/09/07 01:36:41;;;;;;;;;;;15.90;90.20;;;;;;5031788;28;19928;-53
2021/09/07 01:39:45;;;;;;;;;;;15.80;90.50;;;;;;5031639;28;19916;-52
2021/09/07 01:42:49;;;;;;;;;;;15.70;90.50;;;;;;5031456;28;19932;-49
2021/09/07 01:45:53;;;;;;;;;;;15.60;90.90;;;;;;5030958;28;19920;-50
2021/09/07 01:48:58;;;;;;;;;;;15.60;91.10;;;;;;5031283;28;19920;-50
2021/09/07 01:52:12;;;;;;;;;;;15.70;91.00;;;;;;5031181;28;20400;-50
2021/09/07 01:55:16;;;;;;;;;;;15.70;91.00;;;;;;5031479;28;19924;-54
2021/09/07 01:58:21;;;;;;;;;;;15.60;91.10;;;;;;5031708;28;20414;-50
2021/09/07 02:01:25;;;;;;;;;;;15.70;91.20;;;;;;5031252;28;19941;-49
2021/09/07 02:04:30;;;;;;;;;;;15.60;90.90;;;;;;5031282;28;20287;-50
2021/09/07 02:07:34;;;;;;;;;;;15.60;91.20;;;;;;5030955;28;20382;-50
2021/09/07 02:10:38;;;;;;;;;;;15.50;91.40;;;;;;5030958;28;20331;-49
2021/09/07 02:13:43;;;;;;;;;;;15.50;91.40;;;;;;5031117;28;19932;-52
2021/09/07 02:16:47;;;;;;;;;;;15.40;91.30;;;;;;5031077;28;19916;-49
2021/09/07 02:19:52;;;;;;;;;;;15.30;91.30;;;;;;5029828;28;19920;-51
2021/09/07 02:22:57;;;;;;;;;;;15.40;91.70;;;;;;5026875;28;19916;-53
2021/09/07 02:26:00;;;;;;;;;;;15.40;91.70;;;;;;5030784;28;19916;-51
2021/09/07 02:29:06;;;;;;;;;;;15.20;92.20;;;;;;5030287;28;19913;-50
2021/09/07 02:32:11;;;;;;;;;;;15.20;92.30;;;;;;5029852;28;19963;-50
2021/09/07 02:35:17;;;;;;;;;;;15.20;92.50;;;;;;5030305;28;19932;-48
2021/09/07 02:38:21;;;;;;;;;;;15.30;92.40;;;;;;5022017;28;19920;-52
2021/09/07 02:41:25;;;;;;;;;;;15.20;92.40;;;;;;5030067;28;20386;-52
2021/09/07 02:44:30;;;;;;;;;;;15.20;92.50;;;;;;5030643;28;19916;-51
2021/09/07 02:47:35;;;;;;;;;;;15.10;93.00;;;;;;5030303;28;19940;-52
2021/09/07 02:50:39;;;;;;;;;;;15.00;93.20;;;;;;5030079;28;19920;-55
2021/09/07 02:53:43;;;;;;;;;;;14.80;93.40;;;;;;5029207;28;19920;-50
2021/09/07 02:56:48;;;;;;;;;;;14.80;93.60;;;;;;5030133;28;19916;-49
2021/09/07 02:59:53;;;;;;;;;;;14.80;93.90;;;;;;5029840;28;19917;-50
2021/09/07 03:02:57;;;;;;;;;;;14.90;94.10;;;;;;5030177;28;19916;-50
2021/09/07 03:06:03;;;;;;;;;;;14.80;94.30;;;;;;5030228;28;19932;-53
2021/09/07 03:09:08;;;;;;;;;;;14.80;94.40;;;;;;5029817;28;19924;-50
2021/09/07 03:12:12;;;;;;;;;;;14.70;94.70;;;;;;5030156;28;19916;-50
2021/09/07 03:15:17;;;;;;;;;;;14.60;95.10;;;;;;5029337;28;19924;-52
2021/09/07 03:18:21;;;;;;;;;;;14.60;95.30;;;;;;5030082;28;19916;-51
2021/09/07 03:21:26;;;;;;;;;;;14.60;95.50;;;;;;5030077;28;19920;-50
2021/09/07 03:24:31;;;;;;;;;;;14.60;95.80;;;;;;5030301;28;20291;-55
2021/09/07 03:27:35;;;;;;;;;;;14.60;95.80;;;;;;5030351;28;19920;-50
2021/09/07 03:30:40;;;;;;;;;;;14.60;96.10;;;;;;5029916;28;19916;-49
2021/09/07 03:33:44;;;;;;;;;;;14.50;96.30;;;;;;5030255;28;19920;-50
2021/09/07 03:36:49;;;;;;;;;;;14.50;96.60;;;;;;5030037;28;20406;-52
2021/09/07 03:39:54;;;;;;;;;;;14.50;96.80;;;;;;5029939;28;20402;-49
2021/09/07 03:42:58;;;;;;;;;;;14.40;97.40;;;;;;5029723;28;19920;-49
2021/09/07 03:46:03;;;;;;;;;;;14.50;97.40;;;;;;5030062;28;19916;-52
2021/09/07 03:49:09;;;;;;;;;;;14.50;97.40;;;;;;5029813;28;19936;-51
2021/09/07 03:52:15;;;;;;;;;;;14.50;97.80;;;;;;5029560;28;19920;-49
2021/09/07 03:55:18;;;;;;;;;;;14.40;97.80;;;;;;5029643;28;20693;-49
2021/09/07 03:58:23;;;;;;;;;;;14.20;98.50;;;;;;5029710;28;19920;-49
2021/09/07 04:01:26;;;;;;;;;;;14.20;98.50;;;;;;5029231;28;20288;-49
2021/09/07 04:04:31;;;;;;;;;;;14.30;98.50;;;;;;5028783;28;19909;-53
2021/09/07 04:07:37;;;;;;;;;;;14.30;98.70;;;;;;5029607;28;19928;-51
2021/09/07 04:10:43;;;;;;;;;;;14.40;98.50;;;;;;5033237;28;19920;-50
2021/09/07 04:13:47;;;;;;;;;;;14.30;99.00;;;;;;5032667;28;19920;-50
2021/09/07 04:16:52;;;;;;;;;;;14.30;99.10;;;;;;5033296;28;19924;-49
2021/09/07 04:19:56;;;;;;;;;;;14.30;99.50;;;;;;5033156;28;19984;-51
2021/09/07 04:23:01;;;;;;;;;;;14.00;99.90;;;;;;5033020;28;19916;-51
2021/09/07 04:26:05;;;;;;;;;;;14.10;99.80;;;;;;5033230;28;20299;-50
2021/09/07 04:29:09;;;;;;;;;;;14.10;99.90;;;;;;5033047;28;20406;-49
2021/09/07 04:32:13;;;;;;;;;;;14.10;99.90;;;;;;5032318;28;19932;-51
2021/09/07 04:35:18;;;;;;;;;;;14.20;99.90;;;;;;5033051;28;19916;-49
2021/09/07 04:38:22;;;;;;;;;;;14.20;99.90;;;;;;5033538;28;19909;-53
2021/09/07 04:41:28;;;;;;;;;;;14.10;99.90;;;;;;5032755;28;19990;-53
2021/09/07 04:44:32;;;;;;;;;;;14.00;99.90;;;;;;5032299;28;19916;-50
2021/09/07 04:47:37;;;;;;;;;;;14.00;99.90;;;;;;5033191;28;19917;-50
2021/09/07 04:50:41;;;;;;;;;;;13.90;99.90;;;;;;5032881;28;19916;-50
2021/09/07 04:53:45;;;;;;;;;;;13.80;99.90;;;;;;5032734;28;19939;-49
2021/09/07 04:56:49;;;;;;;;;;;13.80;99.90;;;;;;5033065;28;19916;-50
2021/09/07 04:59:54;;;;;;;;;;;13.70;99.90;;;;;;5032676;28;20287;-49
2021/09/07 05:02:58;;;;;;;;;;;13.80;99.90;;;;;;5032471;28;19916;-50
2021/09/07 05:06:02;;;;;;;;;;;13.70;99.90;;;;;;5032666;28;19916;-51
2021/09/07 05:09:06;;;;;;;;;;;13.70;99.90;;;;;;5032630;28;19928;-51
2021/09/07 05:12:10;;;;;;;;;;;13.80;99.90;;;;;;5032316;28;19916;-50
2021/09/07 05:15:15;;;;;;;;;;;13.70;99.90;;;;;;5032687;28;19916;-50
2021/09/07 05:18:19;;;;;;;;;;;13.70;99.90;;;;;;5032600;28;20383;-50
2021/09/07 05:21:23;;;;;;;;;;;13.90;99.90;;;;;;5031299;28;19916;-50
2021/09/07 05:24:27;;;;;;;;;;;14.00;99.90;;;;;;5032670;28;19932;-50
2021/09/07 05:27:32;;;;;;;;;;;14.10;99.90;;;;;;5032687;28;20294;-50
2021/09/07 05:30:36;;;;;;;;;;;14.10;99.90;;;;;;5032137;28;19920;-50
2021/09/07 05:33:40;;;;;;;;;;;14.10;99.90;;;;;;5031955;28;20386;-50
2021/09/07 05:36:44;;;;;;;;;;;14.50;99.90;;;;;;5032338;28;19916;-54
2021/09/07 05:39:48;;;;;;;;;;;16.90;99.90;;;;;;5032232;28;19909;-50
2021/09/07 05:42:52;;;;;;;;;;;19.60;95.40;;;;;;5031625;28;19913;-50
2021/09/07 05:45:56;;;;;;;;;;;19.50;93.70;;;;;;5032170;28;20383;-50
2021/09/07 05:49:00;;;;;;;;;;;21.50;90.80;;;;;;5032132;28;19940;-49
2021/09/07 05:52:05;;;;;;;;;;;22.10;88.40;;;;;;5031384;28;20406;-49
2021/09/07 05:55:09;;;;;;;;;;;23.10;84.20;;;;;;5031979;28;19920;-52
2021/09/07 05:58:13;;;;;;;;;;;24.30;81.20;;;;;;5031551;28;19913;-54
2021/09/07 06:01:17;;;;;;;;;;;26.00;76.60;;;;;;5025106;28;19920;-59
2021/09/07 06:04:21;;;;;;;;;;;26.80;72.80;;;;;;5016139;28;19916;-53
2021/09/07 06:07:25;;;;;;;;;;;26.70;72.30;;;;;;5030430;28;20299;-54
2021/09/07 06:10:30;;;;;;;;;;;27.60;70.80;;;;;;5030110;28;19909;-51
2021/09/07 06:13:34;;;;;;;;;;;27.70;69.10;;;;;;5032394;28;19924;-52
2021/09/07 06:16:39;;;;;;;;;;;28.20;69.20;;;;;;5023498;28;19936;-51
2021/09/07 06:19:43;;;;;;;;;;;29.00;67.60;;;;;;5027733;28;19916;-51
2021/09/07 06:22:47;;;;;;;;;;;29.00;66.10;;;;;;5029871;28;20398;-52
2021/09/07 06:25:51;;;;;;;;;;;29.50;65.00;;;;;;5031250;28;20390;-53
2021/09/07 06:28:55;;;;;;;;;;;29.80;64.40;;;;;;5029624;28;19913;-54
2021/09/07 06:31:59;;;;;;;;;;;26.30;66.50;;;;;;5030630;28;19919;-54
2021/09/07 06:35:03;;;;;;;;;;;26.40;67.50;;;;;;5029327;28;19916;-54
2021/09/07 06:38:08;;;;;;;;;;;27.60;66.30;;;;;;5020887;28;19913;-51
2021/09/07 06:41:12;;;;;;;;;;;27.70;66.10;;;;;;5033550;28;19908;-55
2021/09/07 06:44:16;;;;;;;;;;;28.60;64.80;;;;;;5029797;28;19909;-50
2021/09/07 06:47:20;;;;;;;;;;;28.80;64.30;;;;;;5027850;28;19919;-51
2021/09/07 06:50:24;;;;;;;;;;;28.70;63.90;;;;;;5029941;28;19928;-51
2021/09/07 06:53:28;;;;;;;;;;;29.90;63.20;;;;;;5010377;28;20395;-51
2021/09/07 06:56:33;;;;;;;;;;;30.40;61.50;;;;;;5010624;28;19920;-51
2021/09/07 06:59:36;;;;;;;;;;;29.50;60.90;;;;;;5011060;28;19917;-51
2021/09/07 07:02:41;;;;;;;;;;;29.00;62.30;;;;;;5026047;28;19920;-51
2021/09/07 07:05:46;;;;;;;;;;;28.50;63.10;;;;;;5031177;28;19912;-54
2021/09/07 07:08:50;;;;;;;;;;;29.90;61.20;;;;;;5027284;28;19920;-55
2021/09/07 07:11:53;;;;;;;;;;;31.40;59.80;;;;;;5030370;28;19916;-51
2021/09/07 07:14:57;;;;;;;;;;;32.30;57.90;;;;;;5043303;28;20389;-53
2021/09/07 07:18:01;;;;;;;;;;;32.00;57.40;;;;;;5043679;28;19932;-50
2021/09/07 07:21:05;;;;;;;;;;;31.50;58.10;;;;;;5030267;28;20307;-52
2021/09/07 07:24:10;;;;;;;;;;;31.30;57.10;;;;;;5034815;28;19920;-53
2021/09/07 07:27:14;;;;;;;;;;;31.70;57.10;;;;;;5050118;28;19909;-50
2021/09/07 07:30:20;;;;;;;;;;;32.80;57.00;;;;;;5029923;28;19920;-55
2021/09/07 07:33:24;;;;;;;;;;;33.40;56.90;;;;;;5029520;28;19924;-53
2021/09/07 07:36:30;;;;;;;;;;;34.50;54.80;;;;;;5010542;28;19916;-51
2021/09/07 07:39:36;;;;;;;;;;;33.90;55.30;;;;;;5023013;28;19916;-52
2021/09/07 07:42:40;;;;;;;;;;;34.60;54.80;;;;;;5029331;28;20389;-51
2021/09/07 07:45:44;;;;;;;;;;;35.00;53.80;;;;;;5046617;28;19919;-55
2021/09/07 07:48:49;;;;;;;;;;;35.40;53.20;;;;;;5053782;28;19922;-52
2021/09/07 07:51:55;;;;;;;;;;;34.80;53.70;;;;;;5043741;28;19915;-49
2021/09/07 07:54:59;;;;;;;;;;;32.00;57.70;;;;;;5044141;28;20418;-49
2021/09/07 07:58:03;;;;;;;;;;;30.60;57.00;;;;;;5027416;28;19920;-51
2021/09/07 08:01:07;;;;;;;;;;;30.10;59.40;;;;;;5032214;28;19913;-51
2021/09/07 08:04:11;;;;;;;;;;;31.90;58.50;;;;;;5033340;28;19919;-53
2021/09/07 08:07:18;;;;;;;;;;;32.10;58.20;;;;;;5037695;28;19916;-52
2021/09/07 08:10:22;;;;;;;;;;;31.50;58.50;;;;;;5033512;28;19920;-51
2021/09/07 08:13:26;;;;;;;;;;;30.20;59.20;;;;;;5050105;28;20310;-52
2021/09/07 08:16:30;;;;;;;;;;;30.10;60.90;;;;;;5033723;28;19916;-51
2021/09/07 08:19:34;;;;;;;;;;;29.80;60.50;;;;;;5028844;28;20000;-50
2021/09/07 08:22:38;;;;;;;;;;;33.20;58.00;;;;;;5032952;28;19920;-53
2021/09/07 08:25:42;;;;;;;;;;;32.90;55.80;;;;;;5030082;28;19917;-51
2021/09/07 08:28:47;;;;;;;;;;;31.20;57.00;;;;;;5025383;28;19919;-53
2021/09/07 08:31:51;;;;;;;;;;;32.70;57.20;;;;;;5024231;28;19920;-53
2021/09/07 08:34:55;;;;;;;;;;;31.60;56.50;;;;;;5036152;28;19916;-53
2021/09/07 08:38:00;;;;;;;;;;;33.70;56.00;;;;;;5040626;28;19932;-51
2021/09/07 08:41:04;;;;;;;;;;;31.10;57.50;;;;;;5042057;28;19915;-51
2021/09/07 08:44:09;;;;;;;;;;;33.20;57.20;;;;;;5020093;28;19912;-51
2021/09/07 08:47:14;;;;;;;;;;;33.90;55.70;;;;;;5031069;28;19920;-51
2021/09/07 08:50:18;;;;;;;;;;;32.60;55.70;;;;;;5031272;28;19920;-51
2021/09/07 08:53:24;;;;;;;;;;;34.20;55.60;;;;;;5037088;28;19921;-52
2021/09/07 08:56:28;;;;;;;;;;;35.70;53.40;;;;;;5036816;28;20294;-53
2021/09/07 08:59:32;;;;;;;;;;;36.40;51.60;;;;;;5040118;28;19920;-51
2021/09/07 09:02:41;;;;;;;;;;;37.30;52.10;;;;;;5031901;28;19909;-51
2021/09/07 09:05:46;;;;;;;;;;;39.60;50.70;;;;;;5033274;28;19916;-52
2021/09/07 09:09:00;;;;;;;;;;;38.80;50.40;;;;;;5023566;28;20372;-52
2021/09/07 09:12:05;;;;;;;;;;;40.20;49.80;;;;;;5036161;28;19916;-55
2021/09/07 09:15:10;;;;;;;;;;;38.60;49.00;;;;;;5020956;28;19917;-51
2021/09/07 09:18:14;;;;;;;;;;;38.10;51.10;;;;;;5036124;28;20238;-56
2021/09/07 09:21:25;;;;;;;;;;;40.50;49.60;;;;;;5023943;28;20287;-53
2021/09/07 09:24:28;;;;;;;;;;;42.30;48.50;;;;;;5037860;28;19912;-51
2021/09/07 09:27:33;;;;;;;;;;;40.30;47.60;;;;;;5034130;28;19916;-51
2021/09/07 09:30:38;;;;;;;;;;;37.80;50.40;;;;;;5032232;28;19927;-51
2021/09/07 09:33:42;;;;;;;;;;;39.60;49.50;;;;;;5031640;28;20280;-51
2021/09/07 09:37:03;;;;;;;;;;;40.70;48.80;;;;;;5036700;28;20389;-51
2021/09/07 09:40:07;;;;;;;;;;;40.00;48.20;;;;;;5035150;28;19935;-52
2021/09/07 09:43:25;;;;;;;;;;;40.30;48.60;;;;;;5034601;28;19924;-51
2021/09/07 09:46:30;;;;;;;;;;;40.70;47.20;;;;;;5030991;28;19920;-51
2021/09/07 09:49:34;;;;;;;;;;;42.50;46.70;;;;;;5028879;28;19924;-57
2021/09/07 09:52:40;;;;;;;;;;;45.10;45.60;;;;;;5034278;28;19913;-51
2021/09/07 09:55:44;;;;;;;;;;;47.30;44.20;;;;;;5017130;28;20382;-51
2021/09/07 09:58:48;;;;;;;;;;;48.10;43.70;;;;;;5012321;28;19917;-48
2021/09/07 10:01:53;;;;;;;;;;;48.80;42.90;;;;;;5028112;28;19916;-50
2021/09/07 10:04:58;;;;;;;;;;;48.30;42.70;;;;;;5039381;28;19921;-50
2021/09/07 10:08:02;;;;;;;;;;;46.70;41.50;;;;;;5051785;28;19916;-49
2021/09/07 10:11:10;;;;;;;;;;;47.80;42.10;;;;;;5034028;28;19935;-51
2021/09/07 10:14:17;;;;;;;;;;;48.80;41.60;;;;;;5029790;28;20551;-54
2021/09/07 10:17:57;;;;;;;;;;;47.10;41.20;;;;;;5031486;28;19916;-50
2021/09/07 10:21:03;;;;;;;;;;;47.80;41.40;;;;;;5030302;28;19916;-54
2021/09/07 10:27:15;;;;;;;;;;;47.90;40.70;;;;;;5035771;28;20441;-53
2021/09/07 10:30:37;;;;;;;;;;;45.60;41.40;;;;;;5029894;28;19917;-52
2021/09/07 10:33:45;;;;;;;;;;;45.30;41.90;;;;;;5030881;28;19916;-52
2021/09/07 10:36:56;;;;;;;;;;;45.70;42.00;;;;;;5030105;28;19927;-53
2021/09/07 10:40:22;;;;;;;;;;;46.50;41.40;;;;;;5011093;28;20376;-50
2021/09/07 10:43:49;;;;;;;;;;;41.50;42.20;;;;;;5023266;28;19916;-53
2021/09/07 10:46:56;;;;;;;;;;;41.70;43.20;;;;;;5011027;28;19913;-56
2021/09/07 10:50:00;;;;;;;;;;;43.00;42.60;;;;;;5023202;28;19919;-49
2021/09/07 10:53:23;;;;;;;;;;;42.20;42.40;;;;;;5023139;28;20163;-52
2021/09/07 10:56:27;;;;;;;;;;;41.00;43.10;;;;;;5019975;28;19917;-52
2021/09/07 10:59:47;;;;;;;;;;;39.60;43.80;;;;;;5024589;28;19937;-53
2021/09/07 11:02:53;;;;;;;;;;;38.40;45.30;;;;;;5037696;28;19909;-53
2021/09/07 11:05:56;;;;;;;;;;;37.40;46.10;;;;;;5025370;28;19915;-52
2021/09/07 11:09:02;;;;;;;;;;;35.80;45.10;;;;;;5025132;28;19920;-50
2021/09/07 11:12:32;;;;;;;;;;;35.20;46.10;;;;;;5025481;28;19920;-51
2021/09/07 11:15:37;;;;;;;;;;;34.80;47.30;;;;;;5024307;28;19910;-51
2021/09/07 11:18:47;;;;;;;;;;;34.70;47.70;;;;;;5030073;28;19917;-56
2021/09/07 11:21:51;;;;;;;;;;;36.10;48.10;;;;;;5046794;28;19908;-50
2021/09/07 11:25:07;;;;;;;;;;;38.40;46.40;;;;;;5031048;28;19912;-51
2021/09/07 11:28:12;;;;;;;;;;;40.50;44.30;;;;;;5040963;28;19936;-54
2021/09/07 11:31:16;;;;;;;;;;;41.40;43.30;;;;;;5030363;28;19917;-51
2021/09/07 11:34:20;;;;;;;;;;;41.70;42.50;;;;;;5030397;28;19916;-51
2021/09/07 11:37:25;;;;;;;;;;;42.30;41.80;;;;;;5030118;28;19916;-52
2021/09/07 11:40:31;;;;;;;;;;;42.00;42.10;;;;;;5027488;28;19970;-55
2021/09/07 11:43:40;;;;;;;;;;;41.30;42.60;;;;;;5030132;28;20287;-52
2021/09/07 11:46:44;;;;;;;;;;;42.40;42.00;;;;;;5029654;28;19993;-51
2021/09/07 11:49:48;;;;;;;;;;;42.10;42.00;;;;;;5046280;28;20314;-52
2021/09/07 11:52:52;;;;;;;;;;;42.10;41.80;;;;;;5049392;28;19935;-51
2021/09/07 11:55:57;;;;;;;;;;;41.70;42.30;;;;;;5049639;28;19915;-50
2021/09/07 11:59:15;;;;;;;;;;;40.50;43.90;;;;;;5041411;28;19920;-50
2021/09/07 12:02:25;;;;;;;;;;;38.80;44.90;;;;;;5029741;28;19909;-52
2021/09/07 12:05:49;;;;;;;;;;;37.20;46.10;;;;;;5026934;28;20338;-52
2021/09/07 12:08:53;;;;;;;;;;;36.20;47.30;;;;;;5017689;28;20391;-53
2021/09/07 12:12:06;;;;;;;;;;;35.30;48.10;;;;;;5031814;28;19916;-51
2021/09/07 12:15:16;;;;;;;;;;;34.80;48.30;;;;;;5033745;28;20429;-50
2021/09/07 12:18:28;;;;;;;;;;;34.80;48.70;;;;;;5025283;28;19919;-54
2021/09/07 12:21:32;;;;;;;;;;;34.60;48.90;;;;;;5029253;28;19916;-53
2021/09/07 12:24:37;;;;;;;;;;;34.40;49.00;;;;;;5021266;28;19917;-52
2021/09/07 12:27:46;;;;;;;;;;;34.30;48.90;;;;;;5029728;28;19944;-51
2021/09/07 12:31:07;;;;;;;;;;;34.00;49.60;;;;;;5026831;28;19913;-52
2021/09/07 12:34:21;;;;;;;;;;;33.70;49.70;;;;;;5037240;28;19916;-50
2021/09/07 12:37:27;;;;;;;;;;;33.30;50.20;;;;;;5034018;28;19909;-51
2021/09/07 12:40:33;;;;;;;;;;;33.20;50.60;;;;;;5026763;28;19909;-51
2021/09/07 12:43:41;;;;;;;;;;;33.20;50.90;;;;;;5028651;28;20394;-51
2021/09/07 12:46:45;;;;;;;;;;;33.00;50.90;;;;;;5029176;28;20308;-51
2021/09/07 12:49:49;;;;;;;;;;;32.60;51.00;;;;;;5042228;28;19934;-51
2021/09/07 12:52:54;;;;;;;;;;;32.50;51.20;;;;;;5051896;28;20303;-51
2021/09/07 12:55:58;;;;;;;;;;;32.70;51.40;;;;;;5052688;28;19935;-51
2021/09/07 12:59:04;;;;;;;;;;;32.70;51.30;;;;;;5050956;28;19916;-52
2021/09/07 13:02:08;;;;;;;;;;;32.70;51.10;;;;;;5051062;28;19919;-52
2021/09/07 13:05:13;;;;;;;;;;;32.90;50.70;;;;;;5034192;28;19915;-53
2021/09/07 13:08:28;;;;;;;;;;;34.20;50.50;;;;;;5050253;28;19975;-54
2021/09/07 13:11:33;;;;;;;;;;;35.90;48.80;;;;;;5052217;28;19909;-52
2021/09/07 13:14:37;;;;;;;;;;;36.50;48.10;;;;;;5019983;28;19920;-52
2021/09/07 13:17:41;;;;;;;;;;;35.80;48.10;;;;;;5051314;28;19924;-54
2021/09/07 13:20:46;;;;;;;;;;;35.40;48.50;;;;;;5032010;28;20402;-52
2021/09/07 13:23:50;;;;;;;;;;;35.20;48.90;;;;;;5043533;28;19909;-51
2021/09/07 13:26:53;;;;;;;;;;;34.70;49.20;;;;;;5052173;28;19966;-51
2021/09/07 13:29:57;;;;;;;;;;;34.10;49.50;;;;;;5049916;28;19924;-52
2021/09/07 13:33:02;;;;;;;;;;;33.90;50.40;;;;;;5049521;28;19928;-51
2021/09/07 13:36:07;;;;;;;;;;;34.20;50.70;;;;;;5031979;28;20390;-51
2021/09/07 13:39:11;;;;;;;;;;;36.10;48.80;;;;;;5031428;28;19932;-54
2021/09/07 13:42:15;;;;;;;;;;;37.70;46.70;;;;;;5041739;28;19924;-54
2021/09/07 13:45:19;;;;;;;;;;;38.40;46.00;;;;;;5018650;28;19916;-53
2021/09/07 13:48:23;;;;;;;;;;;37.60;46.00;;;;;;5024253;28;20393;-53
2021/09/07 13:51:27;;;;;;;;;;;36.20;46.90;;;;;;5050428;28;20291;-51
2021/09/07 13:54:33;;;;;;;;;;;35.10;47.60;;;;;;5011960;28;19933;-51
2021/09/07 13:57:37;;;;;;;;;;;34.70;48.40;;;;;;5019914;28;20330;-54
2021/09/07 14:00:42;;;;;;;;;;;34.80;48.20;;;;;;5048079;28;19916;-51
2021/09/07 14:03:48;;;;;;;;;;;34.60;48.80;;;;;;5046045;28;19932;-50
2021/09/07 14:06:54;;;;;;;;;;;34.50;48.30;;;;;;5027492;28;19921;-51
2021/09/07 14:09:59;;;;;;;;;;;33.80;49.10;;;;;;5011174;28;19924;-50
2021/09/07 14:13:03;;;;;;;;;;;33.00;50.20;;;;;;5025685;28;19924;-55
2021/09/07 14:16:07;;;;;;;;;;;32.60;49.80;;;;;;5031535;28;19923;-53
2021/09/07 14:19:12;;;;;;;;;;;32.60;50.20;;;;;;5024295;28;19909;-53
2021/09/07 14:22:16;;;;;;;;;;;32.60;50.60;;;;;;5027028;28;19916;-52
2021/09/07 14:25:22;;;;;;;;;;;32.30;50.90;;;;;;5031246;28;19916;-53
2021/09/07 14:28:27;;;;;;;;;;;32.40;51.10;;;;;;5031401;28;19916;-53
2021/09/07 14:31:31;;;;;;;;;;;32.30;51.20;;;;;;5031168;28;19924;-52
2021/09/07 14:34:37;;;;;;;;;;;32.10;51.30;;;;;;5031134;28;19931;-50
2021/09/07 14:37:43;;;;;;;;;;;31.50;51.70;;;;;;5029984;28;19920;-53
2021/09/07 14:40:47;;;;;;;;;;;31.30;52.10;;;;;;5032549;28;19932;-53
2021/09/07 14:43:51;;;;;;;;;;;31.00;52.60;;;;;;5048782;28;19920;-51
2021/09/07 14:46:55;;;;;;;;;;;31.00;52.70;;;;;;5037973;28;19909;-52
2021/09/07 14:50:00;;;;;;;;;;;31.10;52.70;;;;;;5031199;28;19920;-53
2021/09/07 14:53:06;;;;;;;;;;;31.30;52.80;;;;;;5031316;28;19916;-51
2021/09/07 14:56:10;;;;;;;;;;;31.30;52.10;;;;;;5037199;28;19909;-54
2021/09/07 14:59:14;;;;;;;;;;;31.30;52.10;;;;;;5050026;28;19915;-52
2021/09/07 15:02:18;;;;;;;;;;;31.50;51.80;;;;;;5046917;28;19916;-53
2021/09/07 15:05:22;;;;;;;;;;;31.20;52.00;;;;;;5048097;28;19917;-53
2021/09/07 15:08:26;;;;;;;;;;;31.00;52.20;;;;;;5045406;28;19916;-51
2021/09/07 15:11:33;;;;;;;;;;;30.40;52.60;;;;;;5010259;28;19917;-51
2021/09/07 15:14:37;;;;;;;;;;;30.50;53.30;;;;;;5010654;28;19959;-54
2021/09/07 15:17:41;;;;;;;;;;;30.50;52.60;;;;;;5009788;28;19920;-51
2021/09/07 15:20:47;;;;;;;;;;;30.50;53.10;;;;;;5010148;28;19916;-51
2021/09/07 15:23:51;;;;;;;;;;;30.30;53.30;;;;;;5010489;28;19924;-51
2021/09/07 15:26:56;;;;;;;;;;;30.20;54.10;;;;;;5010540;28;19917;-51
2021/09/07 15:30:04;;;;;;;;;;;30.20;53.90;;;;;;5010018;28;19918;-53
2021/09/07 15:33:08;;;;;;;;;;;30.10;53.70;;;;;;5010228;28;19936;-54
2021/09/07 15:36:12;;;;;;;;;;;30.10;53.70;;;;;;5010411;28;19920;-53
2021/09/07 15:39:16;;;;;;;;;;;30.30;53.90;;;;;;5010297;28;19917;-51
2021/09/07 15:42:20;;;;;;;;;;;30.30;53.60;;;;;;5010102;28;19916;-51
2021/09/07 15:45:24;;;;;;;;;;;30.30;53.30;;;;;;5010216;28;19920;-51
2021/09/07 15:48:28;;;;;;;;;;;30.20;54.00;;;;;;5010362;28;19917;-51
2021/09/07 15:51:32;;;;;;;;;;;30.10;53.50;;;;;;5009607;28;19920;-52
2021/09/07 15:54:36;;;;;;;;;;;30.10;54.30;;;;;;5010230;28;19924;-51
2021/09/07 15:57:40;;;;;;;;;;;30.20;54.80;;;;;;5010248;28;19917;-51
2021/09/07 16:00:45;;;;;;;;;;;30.40;54.60;;;;;;5009609;28;20406;-51
2021/09/07 16:03:49;;;;;;;;;;;30.40;54.70;;;;;;5010461;28;20304;-51
2021/09/07 16:06:53;;;;;;;;;;;30.30;55.60;;;;;;5013653;28;19916;-52
2021/09/07 16:09:57;;;;;;;;;;;30.30;55.60;;;;;;5013612;28;19936;-51
2021/09/07 16:13:02;;;;;;;;;;;30.30;55.70;;;;;;5013714;28;19917;-52
2021/09/07 16:16:06;;;;;;;;;;;30.40;54.40;;;;;;5013765;28;19925;-52
2021/09/07 16:19:10;;;;;;;;;;;30.40;55.00;;;;;;5013878;28;20396;-50
2021/09/07 16:22:14;;;;;;;;;;;30.30;55.10;;;;;;5013308;28;19920;-55
2021/09/07 16:25:18;;;;;;;;;;;30.10;54.90;;;;;;5013799;28;19913;-51
2021/09/07 16:28:25;;;;;;;;;;;30.00;54.90;;;;;;5013646;28;19916;-51
2021/09/07 16:31:31;;;;;;;;;;;29.60;55.00;;;;;;5013152;28;20300;-51
2021/09/07 16:34:35;;;;;;;;;;;29.50;55.70;;;;;;5013720;28;20174;-51
2021/09/07 16:37:40;;;;;;;;;;;29.10;55.90;;;;;;5012661;28;19933;-54
2021/09/07 16:40:44;;;;;;;;;;;28.80;56.50;;;;;;5013089;28;19924;-51
2021/09/07 16:43:50;;;;;;;;;;;28.70;56.50;;;;;;5013436;28;19916;-52
2021/09/07 16:46:54;;;;;;;;;;;28.40;56.70;;;;;;5013311;28;19936;-51
2021/09/07 16:49:59;;;;;;;;;;;28.20;56.80;;;;;;5013082;28;20295;-53
2021/09/07 16:53:25;;;;;;;;;;;28.00;56.40;;;;;;5012946;28;19924;-53
2021/09/07 16:56:29;;;;;;;;;;;27.90;56.70;;;;;;5013636;28;20426;-50
2021/09/07 16:59:35;;;;;;;;;;;27.70;57.30;;;;;;5013682;28;20067;-54
2021/09/07 17:02:42;;;;;;;;;;;27.50;57.60;;;;;;5012837;28;19932;-51
2021/09/07 17:05:47;;;;;;;;;;;27.30;57.90;;;;;;5013340;28;19916;-51
2021/09/07 17:08:52;;;;;;;;;;;27.00;58.30;;;;;;5013285;28;19916;-51
2021/09/07 17:11:57;;;;;;;;;;;26.70;58.60;;;;;;5013002;28;19925;-50
2021/09/07 17:15:01;;;;;;;;;;;26.50;58.80;;;;;;5013156;28;19921;-52
2021/09/07 17:18:06;;;;;;;;;;;26.30;59.00;;;;;;5013418;28;20016;-54
2021/09/07 17:21:09;;;;;;;;;;;26.10;59.70;;;;;;5012664;28;20027;-55
2021/09/07 17:24:14;;;;;;;;;;;25.90;59.90;;;;;;5013309;28;19921;-54
2021/09/07 17:27:18;;;;;;;;;;;25.80;60.00;;;;;;5012971;28;19921;-54
2021/09/07 17:30:24;;;;;;;;;;;25.70;60.50;;;;;;5012548;28;19924;-52
2021/09/07 17:37:04;;;;;;;;;;;25.30;60.60;;;;;;5012451;28;19920;-55
2021/09/07 17:43:29;;;;;;;;;;;25.10;61.50;;;;;;5012312;28;19916;-50
2021/09/07 17:46:35;;;;;;;;;;;24.90;61.90;;;;;;5012325;28;19920;-52
2021/09/07 17:49:39;;;;;;;;;;;24.90;62.10;;;;;;5011820;28;20245;-51
2021/09/07 17:52:43;;;;;;;;;;;24.70;62.60;;;;;;5011777;28;19914;-50
2021/09/07 17:55:47;;;;;;;;;;;24.60;63.00;;;;;;5012053;28;19920;-50
2021/09/07 17:58:53;;;;;;;;;;;24.50;63.70;;;;;;5011866;28;19921;-51
2021/09/07 18:01:58;;;;;;;;;;;24.40;63.90;;;;;;5011619;28;19912;-52
2021/09/07 18:05:02;;;;;;;;;;;24.30;64.40;;;;;;5010968;28;19928;-53
2021/09/07 18:08:06;;;;;;;;;;;24.30;64.70;;;;;;5012092;28;20379;-51